Time;durP1;ratioP1;P1;durP2;ratioP2;P2;SDS_P1;SDS_P2;PMS_P1;PMS_P2;Temp;Humidity;BMP_temperature;BMP_pressure;BME280_temperature;BME280_humidity;BME280_pressure;Samples;Min_cycle;Max_cycle;Signal;HPM_P1;HPM_P2
2021/12/07 00:00:18;;;;;;;22.00;13.57;;;3.70;96.00;;;;;;5140902;27;38234;-56
2021/12/07 00:02:45;;;;;;;23.77;14.18;;;3.80;95.90;;;;;;5141407;27;38180;-57
2021/12/07 00:05:13;;;;;;;21.33;13.88;;;3.80;95.80;;;;;;5141000;27;38177;-59
2021/12/07 00:07:43;;;;;;;21.83;13.27;;;3.80;95.80;;;;;;5140846;27;36456;-59
2021/12/07 00:10:10;;;;;;;23.00;13.98;;;3.80;95.70;;;;;;5141206;27;38645;-59
2021/12/07 00:12:41;;;;;;;27.10;13.82;;;3.70;95.70;;;;;;5140380;27;36712;-59
2021/12/07 00:15:12;;;;;;;24.05;14.43;;;3.70;95.70;;;;;;5139525;27;37629;-57
2021/12/07 00:17:40;;;;;;;26.05;15.60;;;3.70;95.70;;;;;;5140607;27;37965;-57
2021/12/07 00:20:11;;;;;;;22.58;14.00;;;3.60;95.50;;;;;;5141523;27;38010;-56
2021/12/07 00:22:39;;;;;;;23.50;14.30;;;3.60;95.60;;;;;;5141146;27;36976;-56
2021/12/07 00:25:08;;;;;;;21.02;13.48;;;3.60;95.80;;;;;;5142282;27;37449;-57
2021/12/07 00:27:35;;;;;;;19.63;12.77;;;3.60;96.00;;;;;;5139771;27;37709;-56
2021/12/07 00:30:05;;;;;;;22.38;14.20;;;3.50;95.70;;;;;;5140835;27;36317;-56
2021/12/07 00:32:37;;;;;;;19.70;13.20;;;3.60;95.80;;;;;;5141290;27;37540;-57
2021/12/07 00:35:33;;;;;;;21.38;14.40;;;3.50;95.80;;;;;;5141528;27;37849;-56
2021/12/07 00:38:03;;;;;;;22.52;13.30;;;3.50;95.80;;;;;;5140300;27;37569;-58
2021/12/07 00:40:31;;;;;;;20.85;12.73;;;3.40;95.90;;;;;;5142155;27;38191;-59
2021/12/07 00:42:58;;;;;;;20.35;13.75;;;3.40;95.90;;;;;;5138892;27;34713;-59
2021/12/07 00:45:26;;;;;;;21.73;12.80;;;3.40;95.80;;;;;;5140215;27;38478;-59
2021/12/07 00:47:55;;;;;;;19.27;12.90;;;3.40;95.80;;;;;;5139837;27;37691;-59
2021/12/07 00:50:25;;;;;;;19.92;13.57;;;3.40;95.90;;;;;;5141868;27;38580;-58
2021/12/07 00:52:52;;;;;;;18.25;12.52;;;3.30;95.80;;;;;;5141377;27;36984;-59
2021/12/07 00:55:23;;;;;;;21.23;13.55;;;3.30;95.80;;;;;;5140176;27;37360;-59
2021/12/07 00:57:52;;;;;;;18.88;13.15;;;3.30;95.80;;;;;;5139814;27;37544;-59
2021/12/07 01:00:22;;;;;;;21.45;12.80;;;3.30;95.80;;;;;;5140101;27;38150;-59
2021/12/07 01:02:49;;;;;;;18.85;12.98;;;3.30;95.80;;;;;;5139579;27;36715;-59
2021/12/07 01:05:21;;;;;;;19.02;13.07;;;3.20;95.70;;;;;;5139945;27;38895;-59
2021/12/07 01:07:59;;;;;;;20.02;13.63;;;3.20;95.70;;;;;;5138898;27;38591;-59
2021/12/07 01:26:53;;;;;;;18.48;12.15;;;3.00;95.70;;;;;;5121581;27;39189;-56
2021/12/07 01:29:23;;;;;;;18.20;12.35;;;3.00;95.80;;;;;;5140551;27;39489;-57
2021/12/07 01:31:59;;;;;;;17.85;11.18;;;3.00;95.80;;;;;;5139603;27;38744;-57
2021/12/07 01:34:52;;;;;;;20.35;12.65;;;3.00;95.80;;;;;;5138288;27;35647;-56
2021/12/07 01:37:33;;;;;;;18.50;12.13;;;3.00;95.90;;;;;;5140157;27;36437;-56
2021/12/07 01:40:25;;;;;;;17.25;11.68;;;3.00;95.70;;;;;;5138988;27;37813;-57
2021/12/07 01:43:26;;;;;;;17.15;11.75;;;2.90;95.80;;;;;;5142654;27;38307;-57
2021/12/07 01:59:42;;;;;;;20.30;10.85;;;2.90;96.10;;;;;;5136239;27;38950;-57
2021/12/07 02:02:11;;;;;;;14.50;10.25;;;2.80;96.20;;;;;;5142827;27;37402;-56
2021/12/07 02:04:40;;;;;;;14.52;10.02;;;2.80;96.10;;;;;;5142258;27;36238;-56
2021/12/07 02:07:07;;;;;;;14.80;9.70;;;2.90;96.40;;;;;;5143589;27;37714;-57
2021/12/07 02:09:36;;;;;;;16.90;10.13;;;2.90;96.10;;;;;;5141707;27;37950;-56
2021/12/07 02:12:07;;;;;;;17.40;11.65;;;2.90;96.10;;;;;;5143190;27;39276;-57
2021/12/07 02:14:35;;;;;;;15.07;10.43;;;2.90;96.20;;;;;;5143526;27;37512;-56
2021/12/07 02:17:05;;;;;;;14.07;10.10;;;2.90;96.30;;;;;;5143784;27;37403;-56
2021/12/07 02:19:33;;;;;;;16.15;10.07;;;2.90;96.30;;;;;;5143269;27;37524;-56
2021/12/07 02:22:02;;;;;;;14.98;9.85;;;2.80;96.40;;;;;;5144392;27;38706;-57
2021/12/07 02:24:30;;;;;;;15.32;9.52;;;2.80;96.50;;;;;;5140729;27;37097;-57
2021/12/07 02:26:58;;;;;;;14.75;9.63;;;2.70;96.60;;;;;;5142010;27;37585;-56
2021/12/07 02:29:26;;;;;;;15.95;9.93;;;2.80;96.80;;;;;;5143366;27;37594;-57
2021/12/07 02:31:54;;;;;;;14.93;10.30;;;2.70;96.90;;;;;;5140846;27;38585;-56
2021/12/07 02:34:23;;;;;;;16.90;10.70;;;2.70;97.00;;;;;;5142514;27;38484;-56
2021/12/07 02:36:51;;;;;;;15.43;10.20;;;2.80;97.00;;;;;;5141681;27;36928;-56
2021/12/07 02:39:30;;;;;;;15.57;10.90;;;2.70;97.10;;;;;;5143358;27;38257;-56
2021/12/07 02:41:57;;;;;;;16.85;11.32;;;2.80;97.10;;;;;;5142704;27;37174;-57
2021/12/07 02:44:25;;;;;;;15.43;10.25;;;2.80;97.10;;;;;;5142470;27;38177;-56
2021/12/07 02:46:52;;;;;;;16.02;10.93;;;2.80;97.10;;;;;;5143233;27;35713;-57
2021/12/07 02:49:21;;;;;;;16.27;10.32;;;2.80;97.20;;;;;;5140803;27;37415;-56
2021/12/07 02:51:48;;;;;;;13.73;9.77;;;2.80;97.20;;;;;;5142124;27;37865;-59
2021/12/07 02:54:17;;;;;;;14.82;10.75;;;2.80;97.20;;;;;;5142203;27;38293;-59
2021/12/07 02:56:46;;;;;;;15.07;10.70;;;2.80;97.30;;;;;;5141669;27;37252;-59
2021/12/07 02:59:13;;;;;;;15.50;10.73;;;2.80;97.20;;;;;;5142766;27;37660;-59
2021/12/07 03:01:46;;;;;;;14.25;9.73;;;2.80;97.30;;;;;;5140688;27;38116;-56
2021/12/07 03:04:20;;;;;;;15.17;9.53;;;2.80;97.30;;;;;;5140711;27;38612;-56
2021/12/07 03:06:59;;;;;;;14.32;10.13;;;2.80;97.20;;;;;;5141667;27;36672;-57
2021/12/07 03:26:11;;;;;;;12.57;7.85;;;2.80;97.20;;;;;;5120574;27;38205;-56
2021/12/07 03:28:42;;;;;;;12.85;8.07;;;2.80;97.10;;;;;;5119747;27;36451;-57
2021/12/07 03:31:10;;;;;;;11.60;7.45;;;2.80;97.10;;;;;;5121374;27;38317;-57
2021/12/07 03:33:38;;;;;;;13.02;8.60;;;2.80;97.00;;;;;;5120304;27;36658;-59
2021/12/07 03:36:08;;;;;;;11.60;7.82;;;2.80;96.90;;;;;;5121856;27;37484;-59
2021/12/07 03:38:35;;;;;;;10.82;7.70;;;2.70;96.90;;;;;;5119105;27;35299;-59
2021/12/07 03:41:03;;;;;;;11.05;7.90;;;2.70;96.90;;;;;;5121406;27;40010;-59
2021/12/07 03:43:31;;;;;;;11.13;7.80;;;2.70;97.00;;;;;;5119820;27;37989;-58
2021/12/07 03:46:01;;;;;;;12.13;7.53;;;2.70;96.90;;;;;;5119970;27;38383;-59
2021/12/07 03:48:29;;;;;;;12.82;8.75;;;2.60;96.90;;;;;;5121727;27;36854;-56
2021/12/07 03:50:57;;;;;;;11.45;7.57;;;2.70;97.00;;;;;;5120754;27;37820;-56
2021/12/07 03:53:24;;;;;;;12.70;8.02;;;2.60;97.00;;;;;;5121764;27;37865;-56
2021/12/07 03:55:52;;;;;;;13.32;7.68;;;2.60;96.90;;;;;;5118977;27;37667;-59
2021/12/07 03:58:19;;;;;;;12.57;8.38;;;2.60;96.90;;;;;;5120041;27;36875;-57
2021/12/07 04:00:47;;;;;;;11.25;7.60;;;2.60;96.90;;;;;;5120928;27;37534;-57
2021/12/07 04:03:18;;;;;;;12.82;8.07;;;2.60;96.90;;;;;;5119577;27;37711;-57
2021/12/07 04:05:50;;;;;;;12.35;8.35;;;2.60;96.90;;;;;;5119082;27;38005;-57
2021/12/07 04:08:19;;;;;;;11.65;7.32;;;2.60;96.90;;;;;;5119876;27;35318;-56
2021/12/07 04:10:47;;;;;;;12.35;7.63;;;2.60;96.90;;;;;;5120059;27;37577;-56
2021/12/07 04:13:14;;;;;;;11.73;7.28;;;2.60;96.90;;;;;;5119241;27;36526;-56
2021/12/07 04:15:42;;;;;;;11.48;7.88;;;2.60;96.90;;;;;;5135062;27;38091;-56
2021/12/07 04:18:10;;;;;;;12.75;7.80;;;2.50;96.90;;;;;;5140680;27;37683;-56
2021/12/07 04:20:40;;;;;;;12.68;7.88;;;2.60;97.00;;;;;;5139665;27;38558;-57
2021/12/07 04:23:08;;;;;;;12.30;7.88;;;2.60;96.90;;;;;;5140415;27;37922;-56
2021/12/07 04:25:36;;;;;;;12.55;7.35;;;2.60;96.90;;;;;;5140916;27;37083;-56
2021/12/07 04:28:05;;;;;;;11.02;7.47;;;2.50;97.10;;;;;;5140669;27;36382;-56
2021/12/07 04:30:35;;;;;;;11.98;7.60;;;2.50;97.10;;;;;;5141317;27;38283;-57
2021/12/07 04:33:05;;;;;;;14.35;7.63;;;2.60;97.10;;;;;;5139789;27;37979;-57
2021/12/07 04:35:32;;;;;;;12.38;7.82;;;2.60;97.20;;;;;;5138988;27;38599;-59
2021/12/07 04:38:01;;;;;;;11.65;7.22;;;2.60;97.30;;;;;;5140700;27;36546;-59
2021/12/07 04:40:31;;;;;;;14.00;7.50;;;2.60;97.20;;;;;;5139535;27;37337;-59
2021/12/07 04:42:58;;;;;;;12.68;6.97;;;2.60;97.20;;;;;;5140399;27;38186;-59
2021/12/07 04:45:38;;;;;;;12.80;7.63;;;2.60;97.30;;;;;;5140222;27;37461;-59
2021/12/07 04:48:33;;;;;;;12.90;6.68;;;2.70;97.40;;;;;;5140475;27;37223;-59
2021/12/07 04:59:18;;;;;;;11.90;7.45;;;2.90;97.30;;;;;;5141303;27;37482;-59
2021/12/07 05:01:46;;;;;;;12.40;7.15;;;2.90;97.20;;;;;;5138914;27;38290;-59
2021/12/07 05:04:17;;;;;;;12.75;7.40;;;2.80;97.10;;;;;;5140544;27;38962;-59
2021/12/07 05:06:48;;;;;;;9.32;5.85;;;2.80;97.20;;;;;;5139998;27;39900;-59
2021/12/07 05:09:34;;;;;;;10.30;6.07;;;2.80;97.20;;;;;;5140306;27;37345;-59
2021/12/07 05:12:21;;;;;;;10.70;6.07;;;2.80;97.30;;;;;;5139340;27;37578;-59
2021/12/07 05:14:58;;;;;;;10.98;6.13;;;2.80;97.30;;;;;;5140491;27;38478;-58
2021/12/07 05:17:42;;;;;;;9.07;5.75;;;2.80;97.40;;;;;;5137594;27;37816;-56
2021/12/07 05:39:20;;;;;;;10.52;6.68;;;2.90;97.50;;;;;;5139330;27;38066;-59
2021/12/07 05:41:49;;;;;;;15.13;5.80;;;3.00;97.50;;;;;;5139435;27;36558;-57
2021/12/07 05:44:16;;;;;;;9.68;5.85;;;3.00;97.50;;;;;;5139299;27;39817;-56
2021/12/07 05:46:43;;;;;;;10.60;6.18;;;3.10;97.50;;;;;;5140036;27;38501;-56
2021/12/07 05:49:11;;;;;;;13.38;6.82;;;3.10;97.40;;;;;;5139592;27;37219;-56
2021/12/07 05:51:38;;;;;;;11.77;5.70;;;3.10;97.40;;;;;;5138319;27;36341;-56
2021/12/07 05:54:05;;;;;;;10.82;6.13;;;3.10;97.40;;;;;;5138878;27;36328;-56
2021/12/07 05:56:33;;;;;;;10.30;5.85;;;3.10;97.40;;;;;;5137407;27;37228;-56
2021/12/07 05:59:01;;;;;;;11.45;5.80;;;3.20;97.40;;;;;;5138086;27;37473;-56
2021/12/07 06:01:29;;;;;;;12.82;6.75;;;3.20;97.40;;;;;;5137856;27;36693;-56
2021/12/07 06:03:56;;;;;;;11.93;5.90;;;3.30;97.40;;;;;;5138657;27;37093;-56
2021/12/07 06:06:23;;;;;;;12.25;6.20;;;3.30;97.40;;;;;;5136543;27;38090;-59
2021/12/07 06:08:51;;;;;;;13.48;6.20;;;3.30;97.40;;;;;;5138888;27;37592;-56
2021/12/07 06:11:21;;;;;;;10.77;5.75;;;3.30;97.30;;;;;;5139544;27;36205;-57
2021/12/07 06:13:49;;;;;;;10.98;6.03;;;3.30;97.30;;;;;;5139593;27;38369;-57
2021/12/07 06:16:18;;;;;;;12.18;5.82;;;3.40;97.40;;;;;;5137608;27;38844;-56
2021/12/07 06:18:45;;;;;;;11.50;5.07;;;3.40;97.30;;;;;;5138735;27;37636;-56
2021/12/07 06:21:13;;;;;;;11.90;4.65;;;3.50;97.40;;;;;;5138478;27;36283;-56
2021/12/07 06:23:41;;;;;;;11.88;4.97;;;3.50;97.40;;;;;;5138757;27;37384;-59
2021/12/07 06:26:09;;;;;;;9.77;4.25;;;3.50;97.30;;;;;;5139530;27;38481;-59
2021/12/07 06:28:36;;;;;;;11.23;4.95;;;3.50;97.20;;;;;;5139865;27;38701;-56
2021/12/07 06:31:04;;;;;;;10.68;4.93;;;3.50;97.20;;;;;;5142365;27;36473;-57
2021/12/07 06:33:33;;;;;;;10.85;5.40;;;3.50;97.20;;;;;;5142456;27;37371;-59
2021/12/07 06:36:03;;;;;;;9.82;4.82;;;3.50;97.10;;;;;;5142035;27;37489;-59
2021/12/07 06:38:33;;;;;;;10.35;5.65;;;3.50;97.10;;;;;;5142445;27;37534;-59
2021/12/07 06:41:04;;;;;;;11.60;4.93;;;3.50;97.10;;;;;;5141634;27;35327;-59
2021/12/07 06:43:32;;;;;;;10.70;4.88;;;3.40;97.10;;;;;;5142484;27;36435;-59
2021/12/07 06:46:00;;;;;;;12.18;4.72;;;3.50;97.10;;;;;;5143006;27;38357;-59
2021/12/07 06:48:28;;;;;;;12.43;4.55;;;3.50;97.10;;;;;;5140071;27;37908;-59
2021/12/07 06:50:57;;;;;;;10.02;4.55;;;3.50;97.10;;;;;;5143300;27;36542;-57
2021/12/07 06:53:24;;;;;;;9.10;4.38;;;3.40;96.90;;;;;;5141327;27;37534;-57
2021/12/07 06:55:51;;;;;;;11.82;5.10;;;3.30;97.00;;;;;;5142448;27;36463;-57
2021/12/07 06:58:19;;;;;;;10.50;5.25;;;3.30;97.10;;;;;;5140337;27;38272;-59
2021/12/07 07:00:46;;;;;;;10.98;5.22;;;3.20;97.10;;;;;;5142921;27;36892;-59
2021/12/07 07:03:13;;;;;;;10.10;5.28;;;3.20;97.20;;;;;;5139744;27;35883;-59
2021/12/07 07:05:40;;;;;;;11.25;5.20;;;3.20;97.20;;;;;;5143275;27;37710;-59
2021/12/07 07:08:09;;;;;;;14.20;5.13;;;3.20;97.20;;;;;;5141709;27;36156;-59
2021/12/07 07:10:37;;;;;;;12.38;6.30;;;3.10;97.40;;;;;;5142478;27;36985;-59
2021/12/07 07:13:05;;;;;;;9.70;5.10;;;3.10;97.10;;;;;;5140781;27;39025;-59
2021/12/07 07:15:32;;;;;;;11.38;5.40;;;3.10;97.10;;;;;;5141718;27;40537;-56
2021/12/07 07:18:00;;;;;;;12.75;5.50;;;3.10;97.20;;;;;;5140603;27;37952;-57
2021/12/07 07:20:28;;;;;;;10.40;5.57;;;3.00;97.20;;;;;;5141439;27;37185;-56
2021/12/07 07:22:55;;;;;;;13.88;5.10;;;3.00;97.20;;;;;;5141259;27;37480;-57
2021/12/07 07:25:24;;;;;;;12.48;5.30;;;3.00;97.30;;;;;;5141660;27;39590;-59
2021/12/07 07:27:52;;;;;;;12.80;4.72;;;3.00;97.30;;;;;;5139241;27;38146;-59
2021/12/07 07:30:20;;;;;;;10.55;5.03;;;3.00;97.30;;;;;;5141874;27;36535;-59
2021/12/07 07:32:48;;;;;;;13.48;5.20;;;3.00;97.30;;;;;;5140934;27;38686;-59
2021/12/07 07:35:17;;;;;;;11.75;4.95;;;3.00;97.30;;;;;;5141986;27;38319;-58
2021/12/07 07:37:45;;;;;;;14.07;5.32;;;3.10;97.30;;;;;;5139354;27;38817;-57
2021/12/07 07:40:15;;;;;;;13.27;5.32;;;3.00;97.30;;;;;;5141847;27;36658;-58
2021/12/07 07:42:45;;;;;;;11.50;5.53;;;3.00;97.30;;;;;;5141329;27;38972;-58
2021/12/07 07:45:13;;;;;;;13.80;5.82;;;3.00;97.30;;;;;;5142544;27;37428;-58
2021/12/07 07:47:41;;;;;;;18.15;5.93;;;3.00;97.30;;;;;;5142547;27;36533;-57
2021/12/07 07:50:10;;;;;;;12.82;5.53;;;3.00;97.30;;;;;;5143165;27;35014;-58
2021/12/07 07:52:38;;;;;;;11.57;4.88;;;3.00;97.30;;;;;;5139643;27;38965;-57
2021/12/07 07:55:07;;;;;;;13.52;5.35;;;3.00;97.30;;;;;;5142359;27;38793;-57
2021/12/07 07:57:34;;;;;;;11.25;4.85;;;3.10;97.30;;;;;;5140983;27;36060;-58
2021/12/07 08:00:05;;;;;;;14.52;4.93;;;3.10;97.30;;;;;;5143366;27;36522;-58
2021/12/07 08:02:33;;;;;;;13.50;5.70;;;3.10;97.30;;;;;;5139515;27;37502;-58
2021/12/07 08:05:00;;;;;;;16.50;5.25;;;3.10;97.30;;;;;;5141166;27;37620;-58
2021/12/07 08:07:27;;;;;;;15.05;5.47;;;3.10;97.40;;;;;;5141150;27;37097;-58
2021/12/07 08:09:55;;;;;;;14.35;5.20;;;3.20;97.50;;;;;;5140673;27;37543;-59
2021/12/07 08:12:22;;;;;;;13.98;5.43;;;3.30;97.40;;;;;;5142257;27;36364;-58
2021/12/07 08:14:49;;;;;;;16.40;5.95;;;3.40;97.40;;;;;;5140981;27;38139;-58
2021/12/07 08:17:18;;;;;;;16.15;5.15;;;3.50;97.30;;;;;;5137956;27;37538;-58
2021/12/07 08:19:45;;;;;;;15.82;6.07;;;3.60;97.30;;;;;;5142844;27;36617;-59
2021/12/07 08:22:13;;;;;;;13.35;5.45;;;3.60;97.20;;;;;;5142077;27;39467;-58
2021/12/07 08:24:40;;;;;;;10.65;5.07;;;3.70;97.20;;;;;;5140798;27;37233;-60
2021/12/07 08:27:07;;;;;;;14.65;5.68;;;3.70;97.20;;;;;;5140842;27;37195;-59
2021/12/07 08:29:35;;;;;;;15.40;7.25;;;3.80;97.20;;;;;;5141800;27;36333;-58
2021/12/07 08:32:03;;;;;;;13.35;5.38;;;3.90;97.10;;;;;;5140411;27;37554;-58
2021/12/07 08:34:31;;;;;;;17.10;5.40;;;4.00;97.00;;;;;;5140110;27;38474;-57
2021/12/07 08:36:59;;;;;;;15.55;5.50;;;4.00;96.90;;;;;;5139673;27;39017;-57
2021/12/07 08:39:26;;;;;;;10.88;5.25;;;4.10;96.80;;;;;;5139843;27;36266;-57
2021/12/07 08:41:54;;;;;;;13.30;5.13;;;4.10;96.80;;;;;;5140188;27;37252;-58
2021/12/07 08:44:21;;;;;;;15.20;5.75;;;4.20;96.90;;;;;;5138897;27;37892;-58
2021/12/07 08:46:49;;;;;;;16.88;5.00;;;4.20;97.10;;;;;;5139375;27;36024;-58
2021/12/07 08:49:18;;;;;;;11.40;5.47;;;4.40;96.80;;;;;;5138198;27;35189;-59
2021/12/07 08:51:47;;;;;;;16.05;5.03;;;4.50;96.70;;;;;;5136750;27;36326;-59
2021/12/07 08:54:27;;;;;;;12.25;4.70;;;4.60;96.70;;;;;;5136405;27;38874;-59
2021/12/07 08:59:44;;;;;;;18.73;6.88;;;4.80;96.50;;;;;;5139437;27;38699;-58
2021/12/07 09:02:14;;;;;;;15.07;6.22;;;4.90;96.30;;;;;;5136258;27;37532;-57
2021/12/07 09:04:41;;;;;;;12.73;4.60;;;5.10;96.10;;;;;;5138335;27;37393;-58
2021/12/07 09:07:10;;;;;;;11.38;3.70;;;5.30;95.80;;;;;;5138710;27;37510;-58
2021/12/07 09:09:38;;;;;;;12.25;4.22;;;5.40;95.60;;;;;;5140248;27;34415;-58
2021/12/07 09:12:07;;;;;;;11.85;3.92;;;5.40;95.30;;;;;;5139839;27;38356;-59
2021/12/07 09:14:36;;;;;;;13.63;3.97;;;5.40;95.40;;;;;;5139473;27;36519;-58
2021/12/07 09:17:05;;;;;;;11.30;3.80;;;5.40;95.50;;;;;;5139106;27;38514;-59
2021/12/07 09:19:33;;;;;;;10.75;3.67;;;5.40;95.60;;;;;;5138768;27;37133;-59
2021/12/07 09:22:03;;;;;;;8.02;3.28;;;5.50;95.90;;;;;;5137068;27;37016;-58
2021/12/07 09:24:33;;;;;;;15.10;3.40;;;5.60;95.80;;;;;;5139561;27;39655;-58
2021/12/07 09:27:01;;;;;;;12.43;3.50;;;5.80;95.80;;;;;;5137122;27;36047;-58
2021/12/07 09:29:29;;;;;;;9.60;3.17;;;5.90;95.70;;;;;;5137864;27;35905;-58
2021/12/07 09:31:56;;;;;;;13.88;4.03;;;6.10;95.50;;;;;;5137389;27;37681;-58
2021/12/07 09:34:23;;;;;;;9.40;3.40;;;6.30;95.50;;;;;;5139653;27;38744;-59
2021/12/07 09:36:51;;;;;;;9.68;3.53;;;6.40;95.30;;;;;;5138134;27;37215;-60
2021/12/07 09:39:19;;;;;;;10.90;3.40;;;6.60;95.10;;;;;;5140486;27;36283;-60
2021/12/07 09:41:49;;;;;;;10.35;3.47;;;6.80;94.90;;;;;;5138795;27;39035;-60
2021/12/07 09:44:16;;;;;;;13.82;3.40;;;7.00;94.30;;;;;;5139614;27;37450;-60
2021/12/07 09:46:44;;;;;;;14.43;3.95;;;7.30;93.90;;;;;;5137176;27;38138;-59
2021/12/07 09:49:12;;;;;;;10.07;3.65;;;7.50;93.60;;;;;;5138811;27;36606;-60
2021/12/07 09:51:40;;;;;;;12.90;2.90;;;7.40;93.00;;;;;;5138045;27;38708;-59
2021/12/07 09:54:09;;;;;;;15.40;3.20;;;7.10;92.90;;;;;;5139105;27;37728;-58
2021/12/07 09:56:37;;;;;;;12.95;3.40;;;7.10;93.30;;;;;;5137906;27;36059;-60
2021/12/07 09:59:08;;;;;;;15.90;3.50;;;7.50;93.00;;;;;;5139080;27;36636;-60
2021/12/07 10:01:37;;;;;;;10.43;3.03;;;7.80;92.50;;;;;;5139168;27;36932;-60
2021/12/07 10:04:05;;;;;;;10.38;2.88;;;8.00;92.30;;;;;;5141614;27;37940;-60
2021/12/07 10:06:33;;;;;;;9.48;3.13;;;8.10;92.00;;;;;;5142390;27;35930;-58
2021/12/07 10:09:00;;;;;;;11.43;3.10;;;8.00;92.00;;;;;;5142566;27;37234;-58
2021/12/07 10:11:28;;;;;;;14.45;3.97;;;7.90;92.10;;;;;;5141752;27;37704;-58
2021/12/07 10:13:55;;;;;;;15.68;3.67;;;7.80;92.30;;;;;;5143355;27;39065;-58
2021/12/07 10:16:25;;;;;;;10.23;3.55;;;7.60;92.50;;;;;;5142409;27;38696;-57
2021/12/07 10:18:53;;;;;;;13.93;3.03;;;7.60;92.70;;;;;;5140606;27;35273;-58
2021/12/07 10:21:24;;;;;;;10.95;3.47;;;7.60;93.00;;;;;;5142134;27;38065;-58
2021/12/07 10:23:55;;;;;;;10.02;3.33;;;7.50;92.90;;;;;;5140424;27;40085;-58
2021/12/07 10:26:24;;;;;;;13.75;3.10;;;7.50;92.90;;;;;;5141163;27;38753;-58
2021/12/07 10:28:53;;;;;;;14.57;3.80;;;7.40;92.90;;;;;;5140765;27;37277;-58
2021/12/07 10:31:34;;;;;;;10.55;3.10;;;7.20;92.70;;;;;;5143202;27;37012;-59
2021/12/07 10:34:06;;;;;;;13.60;3.35;;;7.00;92.60;;;;;;5138766;27;36706;-58
2021/12/07 10:36:35;;;;;;;10.25;3.08;;;6.90;93.10;;;;;;5142129;27;39045;-58
2021/12/07 10:39:10;;;;;;;11.40;3.30;;;6.80;93.20;;;;;;5142001;27;36975;-58
2021/12/07 10:41:39;;;;;;;11.20;3.20;;;6.80;93.50;;;;;;5141210;27;37677;-58
2021/12/07 10:44:09;;;;;;;12.27;3.15;;;6.80;93.70;;;;;;5144795;27;37909;-60
2021/12/07 10:46:56;;;;;;;9.85;2.88;;;6.80;93.60;;;;;;5145123;27;37696;-60
2021/12/07 10:49:38;;;;;;;12.88;3.63;;;6.80;93.50;;;;;;5142108;27;37138;-60
2021/12/07 10:52:09;;;;;;;16.08;4.03;;;6.90;93.70;;;;;;5144358;27;38833;-59
2021/12/07 10:54:40;;;;;;;10.25;2.60;;;6.90;93.70;;;;;;5144010;27;37496;-59
2021/12/07 10:57:10;;;;;;;12.40;2.90;;;6.90;93.60;;;;;;5142628;27;38210;-57
2021/12/07 10:59:39;;;;;;;12.35;3.38;;;7.00;93.70;;;;;;5141785;27;36598;-58
2021/12/07 11:02:16;;;;;;;15.38;3.10;;;6.90;93.70;;;;;;5142555;27;39258;-57
2021/12/07 11:04:45;;;;;;;14.70;3.38;;;6.70;93.30;;;;;;5141955;27;37342;-58
2021/12/07 11:07:18;;;;;;;15.25;2.92;;;6.60;93.40;;;;;;5141897;27;38353;-58
2021/12/07 11:10:07;;;;;;;10.23;2.53;;;6.60;93.60;;;;;;5140783;27;36534;-57
2021/12/07 11:12:43;;;;;;;9.27;2.75;;;6.60;93.70;;;;;;5142379;27;38962;-57
2021/12/07 11:15:19;;;;;;;19.02;4.63;;;6.70;93.70;;;;;;5142571;27;38817;-57
2021/12/07 11:17:48;;;;;;;14.70;3.75;;;6.70;93.70;;;;;;5142121;27;38352;-57
2021/12/07 11:20:15;;;;;;;19.30;3.83;;;6.70;93.60;;;;;;5139842;27;36581;-58
2021/12/07 11:22:46;;;;;;;11.05;3.42;;;6.70;93.70;;;;;;5143242;27;37673;-58
2021/12/07 11:25:54;;;;;;;14.60;4.07;;;6.80;93.90;;;;;;5142160;27;39850;-59
2021/12/07 11:31:16;;;;;;;12.27;3.58;;;7.00;93.70;;;;;;5141086;27;37637;-60
2021/12/07 11:33:45;;;;;;;9.80;3.20;;;7.40;93.40;;;;;;5140180;27;39188;-57
2021/12/07 11:36:22;;;;;;;13.65;3.40;;;7.60;92.80;;;;;;5142278;27;37678;-57
2021/12/07 11:38:51;;;;;;;11.60;3.10;;;7.60;92.40;;;;;;5142187;27;36457;-59
2021/12/07 11:41:22;;;;;;;10.63;3.40;;;7.70;92.40;;;;;;5142620;27;36413;-60
2021/12/07 11:43:54;;;;;;;12.02;2.78;;;7.80;92.40;;;;;;5142947;27;39229;-59
2021/12/07 11:46:23;;;;;;;11.32;3.10;;;7.80;92.30;;;;;;5141459;27;38181;-58
2021/12/07 11:49:16;;;;;;;14.88;3.90;;;7.80;92.10;;;;;;5140243;27;38098;-58
2021/12/07 11:51:46;;;;;;;10.68;3.60;;;7.80;92.00;;;;;;5142511;27;37356;-58
2021/12/07 11:54:15;;;;;;;13.40;3.35;;;7.80;92.20;;;;;;5141830;27;37107;-61
2021/12/07 11:56:44;;;;;;;13.35;3.95;;;7.70;92.40;;;;;;5141250;27;36494;-59
2021/12/07 11:59:13;;;;;;;18.90;3.75;;;7.60;92.50;;;;;;5140613;27;38809;-60
2021/12/07 12:01:41;;;;;;;11.27;3.28;;;7.50;92.70;;;;;;5141028;27;36493;-59
2021/12/07 12:04:10;;;;;;;13.77;3.10;;;7.40;92.90;;;;;;5141461;27;37429;-59
2021/12/07 12:06:41;;;;;;;11.18;2.97;;;7.30;93.00;;;;;;5140795;27;38215;-57
2021/12/07 12:09:10;;;;;;;11.57;2.97;;;7.30;93.10;;;;;;5142181;27;37495;-57
2021/12/07 12:11:42;;;;;;;12.57;3.60;;;7.20;93.20;;;;;;5140536;27;36496;-59
2021/12/07 12:14:22;;;;;;;11.20;2.92;;;7.20;93.50;;;;;;5142067;27;37515;-58
2021/12/07 12:16:59;;;;;;;12.57;3.15;;;7.20;93.20;;;;;;5141570;27;37937;-57
2021/12/07 12:19:40;;;;;;;13.98;2.80;;;7.20;93.30;;;;;;5140425;27;38209;-57
2021/12/07 12:22:15;;;;;;;13.57;2.88;;;7.20;93.30;;;;;;5141452;27;38015;-57
2021/12/07 12:24:49;;;;;;;13.13;3.85;;;7.20;93.30;;;;;;5141008;27;36488;-59
2021/12/07 12:27:18;;;;;;;13.10;3.58;;;7.20;93.30;;;;;;5141526;27;37849;-59
2021/12/07 12:29:49;;;;;;;16.75;4.38;;;7.20;93.40;;;;;;5141075;27;38457;-59
2021/12/07 12:32:29;;;;;;;18.25;3.10;;;7.20;93.40;;;;;;5141271;27;36911;-59
2021/12/07 12:34:58;;;;;;;10.48;3.00;;;7.20;93.30;;;;;;5141066;27;38569;-59
2021/12/07 12:37:28;;;;;;;14.15;3.53;;;7.20;93.30;;;;;;5139998;27;38345;-59
2021/12/07 12:39:57;;;;;;;14.07;2.80;;;7.20;93.20;;;;;;5140954;27;35510;-59
2021/12/07 12:42:31;;;;;;;11.02;2.95;;;7.40;93.10;;;;;;5137840;27;36390;-58
2021/12/07 12:45:03;;;;;;;14.13;3.13;;;7.10;93.00;;;;;;5140914;27;37455;-59
2021/12/07 12:47:32;;;;;;;10.68;2.88;;;7.10;93.20;;;;;;5141235;27;38689;-59
2021/12/07 12:50:17;;;;;;;15.00;3.33;;;7.00;93.00;;;;;;5140438;27;37192;-57
2021/12/07 12:52:48;;;;;;;13.07;3.30;;;7.00;93.10;;;;;;5138916;27;35394;-57
2021/12/07 12:55:46;;;;;;;13.63;3.05;;;7.00;93.20;;;;;;5139659;27;38310;-57
2021/12/07 12:58:20;;;;;;;17.65;3.05;;;6.90;93.20;;;;;;5052917;28;37651;-57
2021/12/07 13:01:09;;;;;;;;;;;6.90;93.20;;;;;;5125593;27;36284;-57
2021/12/07 13:03:45;;;;;;;11.05;2.80;;;6.90;92.90;;;;;;5133748;27;37121;-57
2021/12/07 13:06:16;;;;;;;11.68;3.15;;;6.80;93.00;;;;;;5141478;27;36606;-59
2021/12/07 13:08:55;;;;;;;17.35;3.78;;;6.80;93.00;;;;;;5140284;27;38706;-59
2021/12/07 13:11:36;;;;;;;15.82;4.13;;;6.80;93.00;;;;;;5141814;27;37385;-59
2021/12/07 13:14:05;;;;;;;10.55;2.80;;;6.80;93.10;;;;;;5140067;27;36751;-59
2021/12/07 13:16:33;;;;;;;10.95;3.22;;;6.80;93.20;;;;;;5140553;27;38036;-59
2021/12/07 13:19:04;;;;;;;15.25;3.10;;;6.90;93.10;;;;;;5138396;27;36455;-57
2021/12/07 13:21:38;;;;;;;14.68;3.83;;;6.80;93.00;;;;;;5140757;27;38729;-57
2021/12/07 13:24:08;;;;;;;15.32;3.42;;;6.80;93.10;;;;;;5140929;27;36573;-57
2021/12/07 13:26:37;;;;;;;13.48;4.07;;;6.80;93.20;;;;;;5141156;27;37193;-57
2021/12/07 13:29:08;;;;;;;8.70;3.03;;;6.80;93.30;;;;;;5140574;27;36460;-59
2021/12/07 13:31:42;;;;;;;16.27;3.42;;;6.80;93.40;;;;;;5140669;27;37291;-59
2021/12/07 13:34:10;;;;;;;12.77;3.65;;;6.80;93.40;;;;;;5140013;27;36677;-59
2021/12/07 13:36:42;;;;;;;9.20;2.95;;;6.70;93.40;;;;;;5140510;27;37808;-59
2021/12/07 13:39:45;;;;;;;10.95;3.38;;;6.70;93.50;;;;;;5140702;27;38241;-57
2021/12/07 13:42:28;;;;;;;12.50;3.05;;;6.70;93.60;;;;;;5141182;27;37411;-57
2021/12/07 13:45:03;;;;;;;10.77;2.88;;;6.70;93.50;;;;;;5141376;27;36147;-57
2021/12/07 13:47:33;;;;;;;13.10;3.08;;;6.70;93.50;;;;;;5139958;27;37645;-57
2021/12/07 13:50:03;;;;;;;15.15;3.08;;;6.70;93.40;;;;;;5140924;27;36261;-57
2021/12/07 13:52:35;;;;;;;10.18;3.35;;;6.70;93.30;;;;;;5140229;27;36165;-57
2021/12/07 13:55:06;;;;;;;13.23;3.40;;;6.60;93.00;;;;;;5140550;27;35296;-57
2021/12/07 13:57:36;;;;;;;10.85;3.72;;;6.60;93.00;;;;;;5141189;27;37007;-57
2021/12/07 14:00:11;;;;;;;15.15;3.58;;;6.60;92.90;;;;;;5140789;27;38050;-57
2021/12/07 14:02:40;;;;;;;10.65;2.88;;;6.60;92.90;;;;;;5140331;27;37546;-57
2021/12/07 14:05:11;;;;;;;15.60;3.13;;;6.50;93.10;;;;;;5141024;27;36622;-59
2021/12/07 14:07:40;;;;;;;11.60;2.90;;;6.60;93.20;;;;;;5140581;27;37600;-59
2021/12/07 14:10:14;;;;;;;11.82;3.03;;;6.60;93.10;;;;;;5140618;27;38268;-59
2021/12/07 14:12:41;;;;;;;;;;;6.60;92.90;;;;;;5140857;27;38097;-59
2021/12/07 14:15:13;;;;;;;11.18;3.03;;;6.60;92.60;;;;;;5136724;27;37393;-57
2021/12/07 14:17:43;;;;;;;14.18;3.20;;;6.60;92.90;;;;;;5137605;27;37884;-59
2021/12/07 14:20:14;;;;;;;10.48;2.85;;;6.50;92.80;;;;;;5138643;27;39685;-57
2021/12/07 14:22:47;;;;;;;16.08;3.55;;;6.50;92.70;;;;;;5141838;27;37321;-57